Acapulco Jet — IWUM — position and weather

sailwx.info

Track history (hours):
 
Tides and Currents Weather Stations Pressure Air Temp Water Temp Dewpoint Dewpoint Depression Visibility Wind Speed Wind Dir Waves Ship Positions

Acapulco Jet

Last reported at 2016-May-27 13:33 UTC. Time now 2016-May-27 16:12 UTC.
Position N 42°50' E 010°22'.

Length 35 m; draft 1.3 m.

Type: High speed craft. MMSI: 247050100.

Date/timePositionNaut miles runAvg speedWind from/ knotsBaromVisibWave heightAir tempDewpointWater temp
2016-May-27 13:33N 42°50' E 010°22'3 1.4
2016-May-27 11:34N 42°52' E 010°25'7 2.2
2016-May-27 08:11N 42°56' E 010°34'1317.5
2016-May-27 07:27N 42°49' E 010°19'12 6.3
2016-May-27 05:32N 42°56' E 010°33'12 0.9
2016-May-26 16:21N 42°49' E 010°20'1312.9
2016-May-26 15:23N 42°56' E 010°34'10 5.6
2016-May-26 13:33N 42°50' E 010°22'3 0.1
2016-May-25 16:26N 42°49' E 010°19'1212.9
2016-May-25 15:29N 42°56' E 010°33'  
2016-May-22 16:17N 42°49' E 010°20'1214.7
2016-May-22 15:26N 42°56' E 010°33'7 3.5
2016-May-22 13:21N 42°52' E 010°26'0 0.0
2016-May-22 11:33N 42°52' E 010°25'4 4.3
2016-May-22 10:33N 42°54' E 010°31'3 1.3
2016-May-22 08:09N 42°56' E 010°33'1220.2
2016-May-22 07:32N 42°49' E 010°19'12 6.3
2016-May-22 05:33N 42°56' E 010°33'12 0.9
2016-May-21 16:24N 42°49' E 010°19'1312.2
2016-May-21 15:22N 42°56' E 010°34'1314.9
2016-May-21 14:31N 42°49' E 010°19'2 2.1
2016-May-21 13:34N 42°50' E 010°21'3 1.7
2016-May-21 11:32N 42°52' E 010°25'7 2.1
2016-May-21 08:13N 42°56' E 010°33'1216.0
2016-May-21 07:26N 42°49' E 010°19'6 2.8
2016-May-21 05:17N 42°52' E 010°26'6 0.5
2016-May-20 16:26N 42°49' E 010°19'5 3.9
2016-May-20 15:05N 42°52' E 010°26'2 0.5
2016-May-20 11:28N 42°51' E 010°23'6 0.1
2016-May-18 10:33N 42°54' E 010°31'10 3.1
2016-May-18 07:22N 42°49' E 010°20'11 5.5
2016-May-18 05:26N 42°54' E 010°32'  
Track history (hours):
 
Tides and Currents Weather Stations Pressure Air Temp Water Temp Dewpoint Dewpoint Depression Visibility Wind Speed Wind Dir Waves Ship Positions

Acapulco Jet

Last reported at 2016-May-27 13:33 UTC. Time now 2016-May-27 16:12 UTC.
Position N 42°50' E 010°22'.

Length 35 m; draft 1.3 m.

Type: High speed craft. MMSI: 247050100.

Date/timePositionNaut miles runAvg speedWind from/ knotsBaromVisibWave heightAir tempDewpointWater temp
2016-May-27 13:33N 42°50' E 010°22'3 1.4
2016-May-27 11:34N 42°52' E 010°25'7 2.2
2016-May-27 08:11N 42°56' E 010°34'1317.5
2016-May-27 07:27N 42°49' E 010°19'12 6.3
2016-May-27 05:32N 42°56' E 010°33'12 0.9
2016-May-26 16:21N 42°49' E 010°20'1312.9
2016-May-26 15:23N 42°56' E 010°34'10 5.6
2016-May-26 13:33N 42°50' E 010°22'3 0.1
2016-May-25 16:26N 42°49' E 010°19'1212.9
2016-May-25 15:29N 42°56' E 010°33'  
2016-May-22 16:17N 42°49' E 010°20'1214.7
2016-May-22 15:26N 42°56' E 010°33'7 3.5
2016-May-22 13:21N 42°52' E 010°26'0 0.0
2016-May-22 11:33N 42°52' E 010°25'4 4.3
2016-May-22 10:33N 42°54' E 010°31'3 1.3
2016-May-22 08:09N 42°56' E 010°33'1220.2
2016-May-22 07:32N 42°49' E 010°19'12 6.3
2016-May-22 05:33N 42°56' E 010°33'12 0.9
2016-May-21 16:24N 42°49' E 010°19'1312.2
2016-May-21 15:22N 42°56' E 010°34'1314.9
2016-May-21 14:31N 42°49' E 010°19'2 2.1
2016-May-21 13:34N 42°50' E 010°21'3 1.7
2016-May-21 11:32N 42°52' E 010°25'7 2.1
2016-May-21 08:13N 42°56' E 010°33'1216.0
2016-May-21 07:26N 42°49' E 010°19'6 2.8
2016-May-21 05:17N 42°52' E 010°26'6 0.5
2016-May-20 16:26N 42°49' E 010°19'5 3.9
2016-May-20 15:05N 42°52' E 010°26'2 0.5
2016-May-20 11:28N 42°51' E 010°23'6 0.1
2016-May-18 10:33N 42°54' E 010°31'10 3.1
2016-May-18 07:22N 42°49' E 010°20'11 5.5
2016-May-18 05:26N 42°54' E 010°32'  

Dump ship's entire track history